createdAt,value
2018-02-13T00:04:15.963Z,5.30
2018-02-13T00:08:59.318Z,5.47
2018-02-13T00:13:42.669Z,6.10
2018-02-13T00:18:26.802Z,5.10
2018-02-13T00:23:10.182Z,5.70
2018-02-13T00:27:54.273Z,5.67
2018-02-13T00:32:37.590Z,6.60
2018-02-13T00:37:20.923Z,6.20
2018-02-13T00:42:04.234Z,6.17
2018-02-13T00:46:47.618Z,6.43
2018-02-13T00:51:30.961Z,6.00
2018-02-13T00:56:14.313Z,5.70
2018-02-13T01:00:57.608Z,5.73
2018-02-13T01:05:41.732Z,6.07
2018-02-13T01:10:25.088Z,5.90
2018-02-13T01:15:08.485Z,6.30
2018-02-13T01:19:51.818Z,6.07
2018-02-13T01:24:35.191Z,5.90
2018-02-13T01:29:18.519Z,6.17
2018-02-13T01:34:01.846Z,6.60
2018-02-13T01:38:45.225Z,6.63
2018-02-13T01:43:28.570Z,6.90
2018-02-13T01:48:11.919Z,6.50
2018-02-13T01:52:55.222Z,6.47
2018-02-13T01:57:38.541Z,7.50
2018-02-13T02:02:21.875Z,6.27
2018-02-13T02:07:05.257Z,7.30
2018-02-13T02:11:48.595Z,6.93
2018-02-13T02:16:31.969Z,7.40
2018-02-13T02:21:15.334Z,8.17
2018-02-13T02:25:58.610Z,8.13
2018-02-13T02:30:41.984Z,8.03
2018-02-13T02:35:26.093Z,8.00
2018-02-13T02:40:09.439Z,7.90
2018-02-13T02:44:52.840Z,8.03
2018-02-13T02:49:36.955Z,8.73
2018-02-13T02:54:20.294Z,8.37
2018-02-13T02:59:03.616Z,8.80
2018-02-13T03:03:46.949Z,9.40
2018-02-13T03:08:30.281Z,9.47
2018-02-13T03:13:13.616Z,9.00
2018-02-13T03:17:56.905Z,10.03
2018-02-13T03:22:40.363Z,8.93
2018-02-13T03:27:23.751Z,10.43
2018-02-13T03:32:07.176Z,10.10
2018-02-13T03:36:50.571Z,9.90
2018-02-13T03:41:33.923Z,9.50
2018-02-13T03:46:17.310Z,9.73
2018-02-13T03:51:00.644Z,9.87
2018-02-13T03:55:44.013Z,9.60
2018-02-13T04:00:27.487Z,10.53
2018-02-13T04:05:10.843Z,10.70
2018-02-13T04:09:54.946Z,10.83
2018-02-13T04:14:38.313Z,10.97
2018-02-13T04:19:21.666Z,10.90
2018-02-13T04:24:05.019Z,11.10
2018-02-13T04:28:48.366Z,11.77
2018-02-13T04:33:31.735Z,12.00
2018-02-13T04:38:15.046Z,10.97
2018-02-13T04:42:59.162Z,12.40
2018-02-13T04:47:42.502Z,12.33
2018-02-13T04:52:25.841Z,11.43
2018-02-13T04:57:09.178Z,12.27
2018-02-13T05:01:52.838Z,12.20
2018-02-13T05:06:36.265Z,13.20
2018-02-13T05:11:19.630Z,12.40
2018-02-13T05:16:02.938Z,13.00
2018-02-13T05:20:46.276Z,11.83
2018-02-13T05:25:29.633Z,12.83
2018-02-13T05:30:12.962Z,13.27
2018-02-13T05:34:56.359Z,12.73
2018-02-13T05:39:40.443Z,12.67
2018-02-13T05:44:23.841Z,11.83
2018-02-13T05:49:07.302Z,12.83
2018-02-13T05:53:51.417Z,12.57
2018-02-13T05:58:34.764Z,12.00
2018-02-13T06:03:18.126Z,12.67
2018-02-13T06:08:01.462Z,13.27
2018-02-13T06:12:44.823Z,14.30
2018-02-13T06:17:28.982Z,14.20
2018-02-13T06:22:13.086Z,13.73
2018-02-13T06:26:56.449Z,13.27
2018-02-13T06:31:39.877Z,13.67
2018-02-13T06:36:23.170Z,13.00
2018-02-13T06:41:06.563Z,14.03
2018-02-13T06:45:49.878Z,14.07
2018-02-13T06:50:33.268Z,14.17
2018-02-13T06:55:16.631Z,13.23
2018-02-13T07:00:00.808Z,13.73
2018-02-13T07:04:44.188Z,14.63
2018-02-13T07:09:27.530Z,14.63
2018-02-13T07:14:11.942Z,13.30
2018-02-13T07:18:56.054Z,13.63
2018-02-13T07:23:39.518Z,14.80
2018-02-13T07:28:22.861Z,14.77
2018-02-13T07:33:06.525Z,15.00
2018-02-13T07:37:50.694Z,14.60
2018-02-13T07:42:34.073Z,21.87
2018-02-13T07:47:17.451Z,15.33
2018-02-13T07:52:01.066Z,14.77
2018-02-13T07:56:44.457Z,13.37
2018-02-13T08:01:27.805Z,13.80
2018-02-13T08:06:11.213Z,15.17
2018-02-13T08:10:54.611Z,14.23
2018-02-13T08:15:38.109Z,14.50
2018-02-13T08:20:21.514Z,13.63
2018-02-13T08:25:04.841Z,13.97
2018-02-13T08:29:48.906Z,14.10
2018-02-13T08:34:32.224Z,14.10
2018-02-13T08:39:15.859Z,14.73
2018-02-13T08:43:59.627Z,12.40
2018-02-13T08:48:42.962Z,12.20
2018-02-13T08:53:26.332Z,12.70
2018-02-13T08:58:09.714Z,13.83
2018-02-13T09:02:53.882Z,13.17
2018-02-13T09:07:38.048Z,12.63
2018-02-13T09:12:21.371Z,12.33
2018-02-13T09:17:05.665Z,12.63
2018-02-13T09:21:49.022Z,12.63
2018-02-13T09:26:32.383Z,11.17
2018-02-13T09:31:15.743Z,10.03
2018-02-13T09:35:59.227Z,12.03
2018-02-13T09:40:42.712Z,11.30
2018-02-13T09:45:26.084Z,11.87
2018-02-13T09:50:09.464Z,10.77
2018-02-13T09:54:52.837Z,11.20
2018-02-13T09:59:36.199Z,10.87
2018-02-13T10:04:19.579Z,9.47
2018-02-13T10:09:02.974Z,10.83
2018-02-13T10:13:46.354Z,10.73
2018-02-13T10:18:29.734Z,9.73
2018-02-13T10:23:13.062Z,9.73
2018-02-13T10:27:56.409Z,9.57
2018-02-13T10:32:39.821Z,10.10
2018-02-13T10:37:23.210Z,8.57
2018-02-13T10:42:06.546Z,10.60
2018-02-13T10:46:49.908Z,9.70
2018-02-13T10:51:33.275Z,8.23
2018-02-13T10:56:16.649Z,8.00
2018-02-13T11:01:05.675Z,8.00
2018-02-13T11:05:49.147Z,9.17
2018-02-13T11:10:32.547Z,8.73
2018-02-13T11:15:16.563Z,9.53
2018-02-13T11:19:59.922Z,7.77
2018-02-13T11:24:43.299Z,9.23
2018-02-13T11:29:26.651Z,8.73
2018-02-13T11:34:10.719Z,8.60
2018-02-13T11:38:54.118Z,10.03
2018-02-13T11:43:37.514Z,9.70
2018-02-13T11:48:20.870Z,9.90
2018-02-13T11:53:04.209Z,10.97
2018-02-13T11:57:47.576Z,9.77
2018-02-13T12:02:31.303Z,8.13
2018-02-13T12:07:14.623Z,8.47
2018-02-13T12:11:57.953Z,9.03
2018-02-13T12:16:41.344Z,8.40
2018-02-13T12:21:24.686Z,8.20
2018-02-13T12:26:08.027Z,8.13
2018-02-13T12:30:51.351Z,7.70
2018-02-13T12:35:35.165Z,7.77
2018-02-13T12:40:18.572Z,7.77
2018-02-13T12:45:01.875Z,6.27
2018-02-13T12:49:45.634Z,5.97
2018-02-13T12:54:29.051Z,7.50
2018-02-13T12:59:12.422Z,5.93
2018-02-13T13:04:07.451Z,5.93
2018-02-13T13:08:50.842Z,4.67
2018-02-13T13:13:34.380Z,4.63
2018-02-13T13:18:18.119Z,5.77
2018-02-13T13:23:02.252Z,6.10
2018-02-13T13:27:45.597Z,6.40
2018-02-13T13:32:28.986Z,6.77
2018-02-13T13:37:12.340Z,6.70
2018-02-13T13:41:55.911Z,6.03
2018-02-13T13:46:39.245Z,5.83
2018-02-13T13:51:22.570Z,6.40
2018-02-13T13:56:05.877Z,6.77
2018-02-13T14:00:49.246Z,6.23
2018-02-13T14:05:32.574Z,6.80
2018-02-13T14:10:16.119Z,5.63
2018-02-13T14:15:00.541Z,6.50
2018-02-13T14:19:44.726Z,6.17
2018-02-13T14:24:28.116Z,6.00
2018-02-13T14:29:11.458Z,5.70
2018-02-13T14:33:54.808Z,6.10
2018-02-13T14:38:38.145Z,6.43
2018-02-13T14:43:22.380Z,5.83
2018-02-13T14:48:06.232Z,6.20
2018-02-13T14:52:49.614Z,6.43
2018-02-13T14:57:33.063Z,6.10
2018-02-13T15:02:16.442Z,5.87
2018-02-13T15:06:59.816Z,6.10
2018-02-13T15:11:43.167Z,7.47
2018-02-13T15:16:26.499Z,7.13
2018-02-13T15:21:09.854Z,7.10
2018-02-13T15:25:53.247Z,6.83
2018-02-13T15:30:36.645Z,7.07
2018-02-13T15:35:20.770Z,6.33
2018-02-13T15:40:04.042Z,6.50
2018-02-13T15:44:47.436Z,7.40
2018-02-13T15:49:30.790Z,7.33
2018-02-13T15:54:14.115Z,7.10
2018-02-13T15:58:57.461Z,7.63
2018-02-13T16:03:40.807Z,6.87
2018-02-13T16:08:24.108Z,6.90
2018-02-13T16:13:08.174Z,6.77
2018-02-13T16:17:51.493Z,7.83
2018-02-13T16:22:35.606Z,8.60
2018-02-13T16:27:18.915Z,7.87
2018-02-13T16:32:02.218Z,8.53
2018-02-13T16:36:45.556Z,8.03
2018-02-13T16:41:28.946Z,8.10
2018-02-13T16:46:12.290Z,9.40
2018-02-13T16:50:55.682Z,11.10
2018-02-13T16:55:39.025Z,10.67
2018-02-13T17:00:23.117Z,9.83
2018-02-13T17:05:06.443Z,10.43
2018-02-13T17:09:49.779Z,10.37
2018-02-13T17:14:33.166Z,10.37
2018-02-13T17:19:16.523Z,10.63
2018-02-13T17:23:59.905Z,11.37
2018-02-13T17:28:44.032Z,16.50
2018-02-13T17:33:27.479Z,18.77
2018-02-13T17:38:10.889Z,14.07
2018-02-13T17:42:54.250Z,36.17
2018-02-13T17:47:37.757Z,30.08
2018-02-13T17:52:21.135Z,24.90
2018-02-13T17:57:11.848Z,12.57
2018-02-13T18:01:55.885Z,13.57
2018-02-13T18:06:40.891Z,12.77
2018-02-13T18:11:27.442Z,13.80
2018-02-13T18:16:12.016Z,13.53
2018-02-13T18:20:56.619Z,14.53
2018-02-13T18:25:42.781Z,14.23
2018-02-13T18:30:26.509Z,13.67
2018-02-13T18:35:11.038Z,13.70
2018-02-13T18:39:55.845Z,13.33
2018-02-13T18:44:42.752Z,16.27
2018-02-13T18:49:27.112Z,14.30
2018-02-13T18:54:10.661Z,13.80
2018-02-13T18:58:55.009Z,15.70
2018-02-13T19:03:39.416Z,16.03
2018-02-13T19:08:23.746Z,17.20
2018-02-13T19:13:08.476Z,16.60
2018-02-13T19:17:51.949Z,15.70
2018-02-13T19:22:35.298Z,16.17
2018-02-13T19:27:18.683Z,16.20
2018-02-13T19:32:02.091Z,16.77
2018-02-13T19:42:06.744Z,15.47
2018-02-13T19:46:50.536Z,16.03
2018-02-13T19:51:40.036Z,15.03
2018-02-13T19:56:28.589Z,16.73
2018-02-13T20:01:12.190Z,18.87
2018-02-13T20:05:55.613Z,16.47
2018-02-13T20:10:40.214Z,16.80
2018-02-13T20:15:24.453Z,15.03
2018-02-13T20:20:07.899Z,15.40
2018-02-13T20:24:51.321Z,16.23
2018-02-13T20:29:35.732Z,16.70
2018-02-13T20:34:19.228Z,14.33
2018-02-13T20:39:02.599Z,13.07
2018-02-13T20:43:46.027Z,13.43
2018-02-13T20:48:29.508Z,14.43
2018-02-13T20:53:12.902Z,12.57
2018-02-13T20:57:57.171Z,13.67
2018-02-13T21:02:40.589Z,12.57
2018-02-13T21:07:24.712Z,14.10
2018-02-13T21:12:08.217Z,13.30
2018-02-13T21:16:51.588Z,14.27
2018-02-13T21:21:34.956Z,14.60
2018-02-13T21:26:18.372Z,12.87
2018-02-13T21:31:02.610Z,13.90
2018-02-13T21:35:46.667Z,14.93
2018-02-13T21:40:30.006Z,14.07
2018-02-13T21:45:13.505Z,15.37
2018-02-13T21:49:56.945Z,14.03
2018-02-13T21:54:40.616Z,15.00
2018-02-13T21:59:24.099Z,16.37
2018-02-13T22:04:07.400Z,15.23
2018-02-13T22:08:50.735Z,15.27
2018-02-13T22:13:34.863Z,15.97
2018-02-13T22:18:18.908Z,16.50
2018-02-13T22:23:02.237Z,14.80
2018-02-13T22:27:45.578Z,15.03
2018-02-13T22:32:28.940Z,15.13
2018-02-13T22:37:12.355Z,17.43
2018-02-13T22:41:55.764Z,16.90
2018-02-13T22:46:39.871Z,15.17
2018-02-13T22:51:23.231Z,17.90
2018-02-13T22:56:06.787Z,15.37
2018-02-13T23:00:50.214Z,16.57
2018-02-13T23:05:33.562Z,15.23
2018-02-13T23:10:16.925Z,17.47
2018-02-13T23:15:00.366Z,16.53
2018-02-13T23:19:43.712Z,15.37
2018-02-13T23:24:27.821Z,14.73
2018-02-13T23:29:11.167Z,14.87
2018-02-13T23:33:54.507Z,17.30
2018-02-13T23:38:37.863Z,13.90
2018-02-13T23:43:21.247Z,13.60
2018-02-13T23:48:04.615Z,15.23
2018-02-13T23:52:47.949Z,15.20
2018-02-13T23:57:31.307Z,15.73
